x

8770822 - Texas Point, Tx (txpt2) Weather Station

11:18pm - Wed 24th May 2017 All times are CDT. -5 hours from GMT.

  • Wind
    5mph, 6mph gusts
  • Sea Temp 77°f
  • Air Temp 71°f
  • Sea Pressure 1008.8mb
  • 8770822 - Texas Point, Tx
  • 8770822 - Texas Point, Tx

More Historic Weather Station data

Upgrade to MSW Pro to gain access to the past 30 days of data for over 8000 Wavebouys and Weather Stations around the globe.

Join Pro

Comparision Forecast

View Surf forecast
   
Wed 05/24 11:18pm 5 6 mph 1008.8mb 77f 71f
11:12pm 5 6 mph 1008.8mb 77f 71f
11:06pm 3 5 mph 1008.8mb 77f 71f
11:00pm 3 5 mph 1008.6mb 77f 71f
10:54pm 2 3 mph 1008.6mb 77f 71f
10:48pm 2 3 mph 1008.6mb 77f 71f
10:42pm 2 3 mph 1008.6mb 77f 72f
10:36pm 3 5 mph 1008.5mb 77f 72f
10:30pm 5 5 mph 1008.5mb 77f 72f
10:24pm 3 6 mph 1008.5mb 77f 73f
10:18pm 5 5 mph 1008.4mb 77f 73f
10:12pm 5 6 mph 1008.4mb 77f 72f
10:06pm 6 7 mph 1008.3mb 77f 73f
10:00pm 6 7 mph 1008.2mb 77f 72f
9:54pm 7 7 mph 1008.2mb 77f 72f
9:48pm 7 7 mph 1008.1mb 77f 73f
9:42pm 6 7 mph 1008mb 77f 73f
9:36pm 7 8 mph 1007.9mb 77f 73f
9:30pm 8 10 mph 1007.9mb 78f 73f
9:24pm 9 10 mph 1007.8mb 78f 73f
9:18pm 8 10 mph 1007.7mb 78f 73f
9:12pm 9 10 mph 1007.6mb 78f 73f
9:06pm 9 10 mph 1007.6mb 78f 73f
9:00pm 9 11 mph 1007.6mb 78f 73f
8:54pm 10 11 mph 1007.5mb 78f 73f
8:48pm 10 13 mph 1007.5mb 78f 74f
8:42pm 10 11 mph 1007.4mb 78f 74f
8:36pm 10 11 mph 1007.4mb 78f 74f
8:30pm 9 10 mph 1007.4mb 78f 74f
8:24pm 9 10 mph 1007.4mb 78f 74f
8:18pm 9 10 mph 1007.4mb 78f 74f
8:12pm 10 11 mph 1007.4mb 78f 74f
8:06pm 9 11 mph 1007.4mb 78f 75f
8:00pm 9 13 mph 1007.3mb 78f 75f
7:54pm 10 11 mph 1007.2mb 78f 75f
7:48pm 10 13 mph 1007.1mb 78f 75f
7:42pm 10 13 mph 1007mb 78f 75f
7:36pm 11 14 mph 1007mb 78f 76f
7:30pm 11 14 mph 1006.9mb 78f 76f
7:24pm 11 14 mph 1006.9mb 78f 76f
7:18pm 13 14 mph 1006.9mb 78f 76f
7:12pm 14 16 mph 1006.9mb 78f 77f
7:06pm 14 18 mph 1006.8mb 78f 77f
7:00pm 15 17 mph 1006.8mb 78f 77f
6:54pm 15 18 mph 1006.8mb 78f 77f
6:48pm 16 21 mph 1006.9mb 78f 77f
6:42pm 18 21 mph 1006.8mb 78f 77f
6:36pm 16 20 mph 1006.8mb 78f 77f
6:30pm 13 17 mph 1006.8mb 78f 77f
6:24pm 18 21 mph 1006.8mb 78f 77f
6:18pm 15 20 mph 1006.8mb 78f 77f
6:12pm 15 22 mph 1006.7mb 78f 78f
6:06pm 17 22 mph 1006.7mb 78f 78f
6:00pm 17 22 mph 1006.8mb 78f 78f
5:54pm 16 21 mph 1006.8mb 78f 78f
5:48pm 16 20 mph 1006.9mb 78f 78f
5:42pm 15 18 mph 1006.9mb 78f 78f
5:36pm 17 22 mph 1006.9mb 78f 78f
5:30pm 15 22 mph 1006.9mb 78f 78f
5:24pm 13 18 mph 1006.9mb 78f 78f
5:18pm 16 25 mph 1007mb 78f 78f
5:12pm 18 23 mph 1007mb 78f 77f
5:06pm 18 23 mph 1007mb 78f 78f
5:00pm 20 28 mph 1007.1mb 78f 77f
4:48pm 16 23 mph 1007.1mb 78f 77f
4:42pm 17 25 mph 1007.2mb 78f 77f
4:36pm 21 25 mph 1007.3mb 78f 77f
4:30pm 22 26 mph 1007.3mb 78f 77f
4:24pm 22 26 mph 1007.4mb 78f 76f
4:18pm 17 26 mph 1007.4mb 78f 77f
4:12pm 22 32 mph 1007.4mb 78f 76f
4:06pm 18 22 mph 1007.4mb 78f 77f
4:00pm 23 28 mph 1007.5mb 78f 76f
3:54pm 22 26 mph 1007.5mb 78f 77f
3:48pm 21 29 mph 1007.5mb 78f 76f
3:42pm 20 28 mph 1007.5mb 78f 76f
3:36pm 25 30 mph 1007.7mb 78f 77f
3:30pm 26 32 mph 1007.8mb 78f 77f
3:24pm 20 26 mph 1007.8mb 78f 76f
3:18pm 24 30 mph 1007.9mb 78f 76f
3:12pm 22 30 mph 1007.9mb 78f 77f
3:06pm 26 34 mph 1008mb 78f 76f
3:00pm 24 31 mph 1008mb 78f 77f
2:54pm 28 33 mph 1008.1mb 78f 76f
2:48pm 28 31 mph 1008.1mb 78f 75f
2:42pm 24 31 mph 1008.2mb 78f 76f
2:36pm 23 30 mph 1008.2mb 78f 76f
2:30pm 28 32 mph 1008.3mb 78f 75f
2:24pm 28 32 mph 1008.4mb 78f 75f
2:18pm 23 30 mph 1008.4mb 78f 76f
2:12pm 25 31 mph 1008.6mb 78f 75f
2:06pm 18 29 mph 1008.6mb 78f 76f
2:00pm 25 30 mph 1008.6mb 78f 76f
1:54pm 25 32 mph 1008.6mb 78f 75f
1:48pm 18 25 mph 1008.7mb 78f 75f
1:42pm 26 37 mph 1008.8mb 78f 75f
1:36pm 24 30 mph 1008.8mb 78f 75f
1:30pm 22 32 mph 1008.8mb 78f 75f
1:24pm 23 31 mph 1008.9mb 78f 75f
1:18pm 26 31 mph 1008.9mb 78f 74f
1:12pm 20 30 mph 1008.9mb 78f 75f
1:06pm 23 30 mph 1009mb 78f 75f
1:00pm 22 36 mph 1009mb 78f 75f
12:54pm 24 31 mph 1009mb 78f 75f
12:48pm 22 28 mph 1009.2mb 78f 74f
12:42pm 18 25 mph 1009.3mb 78f 74f
12:36pm 21 25 mph 1009.3mb 78f 74f
12:30pm 22 26 mph 1009.4mb 78f 74f
12:24pm 17 23 mph 1009.5mb 78f 75f
12:18pm 23 30 mph 1009.6mb 78f 74f
12:12pm 25 29 mph 1009.6mb 78f 73f
12:06pm 20 28 mph 1009.7mb 78f 73f
12:00pm 20 23 mph 1009.7mb 78f 73f
11:54am 20 26 mph 1009.7mb 78f 73f
11:48am 18 22 mph 1009.7mb 78f 73f
11:42am 16 21 mph 1009.7mb 78f 73f
11:36am 18 24 mph 1009.7mb 78f 72f
11:30am 21 25 mph 1009.7mb 78f 72f
11:24am 20 25 mph 1009.7mb 78f 72f
11:18am 16 20 mph 1009.8mb 78f 72f
11:12am 15 20 mph 1009.9mb 78f 71f
11:06am 17 24 mph 1010mb 78f 70f
11:00am 22 24 mph 1010mb 78f 70f
10:54am 17 25 mph 1010.1mb 78f 70f
10:48am 20 23 mph 1010.1mb 78f 70f
10:42am 17 21 mph 1010.1mb 78f 70f
10:36am 15 21 mph 1010.1mb 78f 70f
10:30am 17 21 mph 1010.2mb 78f 69f
10:24am 18 22 mph 1010.1mb 78f 69f
10:18am 16 20 mph 1010mb 78f 69f
10:12am 16 21 mph 1010mb 78f 68f
10:06am 14 20 mph 1009.9mb 78f 68f
10:00am 16 18 mph 1009.9mb 78f 67f
9:54am 16 18 mph 1009.9mb 78f 67f
9:48am 11 18 mph 1009.9mb 78f 67f
9:42am 14 18 mph 1009.9mb 78f 66f
9:36am 14 18 mph 1009.9mb 78f 66f
9:30am 16 20 mph 1009.9mb 78f 65f
9:24am 15 20 mph 1009.9mb 78f 66f
9:18am 15 18 mph 1009.9mb 78f 65f
9:12am 15 20 mph 1009.8mb 78f 65f
9:06am 17 20 mph 1009.8mb 78f 64f
9:00am 18 22 mph 1009.7mb 78f 64f
8:54am 16 20 mph 1009.7mb 78f 64f
8:48am 15 18 mph 1009.7mb 78f 64f
8:42am 15 21 mph 1009.7mb 78f 64f
8:36am 16 22 mph 1009.7mb 78f 64f
8:30am 18 22 mph 1009.8mb 78f 64f
8:24am 15 17 mph 1009.8mb 78f 63f
8:18am 14 17 mph 1009.8mb 78f 64f
8:12am 16 21 mph 1009.8mb 78f 63f
8:06am 14 16 mph 1009.8mb 78f 63f
8:00am 11 16 mph 1009.8mb 78f 62f
7:48am 15 18 mph 1009.6mb 78f 62f
7:42am 15 18 mph 1009.7mb 78f 62f
7:36am 16 18 mph 1009.6mb 78f 61f
7:30am 14 18 mph 1009.7mb 78f 61f
7:24am 15 18 mph 1009.7mb 78f 61f
7:18am 14 17 mph 1009.7mb 78f 60f
7:12am 15 17 mph 1009.6mb 78f 60f
7:06am 14 18 mph 1009.5mb 78f 61f
7:00am 15 18 mph 1009.5mb 78f 61f
6:54am 10 14 mph 1009.4mb 78f 61f
6:48am 10 14 mph 1009.3mb 78f 61f
6:42am 9 11 mph 1009.1mb 78f 61f
6:36am 10 15 mph 1009mb 78f 62f
6:30am 14 17 mph 1008.8mb 78f 63f
6:24am 14 16 mph 1008.7mb 78f 63f
6:18am 10 14 mph 1008.6mb 78f 63f
6:12am 14 15 mph 1008.6mb 78f 62f
6:06am 13 14 mph 1008.3mb 78f 63f
6:00am 13 16 mph 1008.2mb 78f 63f
5:54am 15 17 mph 1008.1mb 78f 63f
5:48am 16 20 mph 1008.4mb 78f 63f
5:42am 17 20 mph 1008.5mb 78f 63f
5:36am 17 20 mph 1008.4mb 78f 63f
5:30am 14 17 mph 1008.2mb 78f 63f
5:24am 10 13 mph 1008.6mb 78f 63f
5:18am 13 16 mph 1008.7mb 78f 62f
5:12am 14 18 mph 1008.7mb 78f 62f
5:06am 15 20 mph 1008.6mb 78f 62f
5:00am 15 20 mph 1008.8mb 79f 62f
4:54am 13 17 mph 1008.8mb 79f 62f
4:48am 13 16 mph 1008.8mb 79f 62f
4:42am 13 17 mph 1008.8mb 79f 62f
4:36am 14 16 mph 1008.7mb 79f 62f
4:30am 13 15 mph 1008.6mb 79f 63f
4:24am 10 15 mph 1008.5mb 79f 63f
4:18am 10 18 mph 1008.6mb 79f 64f
4:12am 15 23 mph 1008.6mb 79f 65f
4:06am 21 25 mph 1008.6mb 79f 65f
4:00am 22 25 mph 1008.5mb 79f 64f
3:54am 23 25 mph 1008.5mb 79f 65f
3:48am 22 25 mph 1008.5mb 79f 65f
3:42am 21 25 mph 1008.5mb 79f 65f
3:36am 18 24 mph 1008.5mb 79f 65f
3:30am 17 23 mph 1008.7mb 79f 65f
3:24am 16 21 mph 1008.7mb 79f 65f
3:18am 16 25 mph 1008.7mb 79f 66f
3:12am 21 24 mph 1008.7mb 79f 66f
3:06am 16 20 mph 1008.8mb 79f 65f
3:00am 16 20 mph 1008.8mb 79f 65f
2:54am 17 22 mph 1008.9mb 79f 64f
2:48am 16 21 mph 1009mb 79f 65f
2:42am 18 23 mph 1009.1mb 79f 65f
2:36am 16 20 mph 1009.2mb 79f 65f
2:30am 18 23 mph 1009.3mb 79f 65f
2:24am 16 20 mph 1009.3mb 79f 65f
2:18am 17 21 mph 1009.4mb 79f 66f
2:12am 15 20 mph 1009.6mb 79f 66f
2:06am 16 20 mph 1009.6mb 79f 66f
2:00am 17 22 mph 1009.7mb 79f 66f
1:54am 20 25 mph 1009.7mb 79f 67f
1:48am 16 22 mph 1009.8mb - -
1:42am 17 22 mph 1009.8mb - -
1:36am 18 24 mph 1009.9mb - -
1:30am 20 23 mph 1009.9mb 79f 67f
1:24am 20 23 mph 1009.9mb 79f 67f
1:18am 17 21 mph 1010mb 79f 67f
1:12am 16 21 mph 1010.1mb 79f 67f
1:06am 14 20 mph 1010.1mb 79f 67f
1:00am 16 20 mph 1010.1mb 79f 67f
12:54am 15 18 mph 1010.1mb 79f 67f
12:48am 14 16 mph 1010mb 79f 67f
12:42am 14 16 mph 1010.2mb 79f 67f
12:36am 13 16 mph 1010.3mb 79f 67f
12:30am 15 21 mph 1010.4mb 79f 67f
12:24am 14 18 mph 1010.7mb 79f 67f
12:18am 16 18 mph 1010.4mb 79f 67f
12:12am 13 16 mph 1010.1mb 79f 67f
12:06am 15 21 mph 1010.5mb 79f 67f
12:00am 16 21 mph 1010.9mb 79f 67f
Tue 05/23 11:54pm 18 21 mph 1010.8mb 79f 67f
11:48pm 14 20 mph 1010.7mb 79f 68f
11:42pm 15 18 mph 1010.7mb 79f 67f
11:36pm 13 16 mph 1010.7mb 79f 67f
11:30pm 14 18 mph 1010.4mb 79f 67f
11:24pm 14 17 mph 1010.2mb 79f 68f
11:18pm 14 18 mph 1010mb 79f 68f
11:12pm 14 16 mph 1009.8mb 79f 68f
11:06pm 14 17 mph 1010mb 79f 68f
11:00pm 13 15 mph 1009.9mb 79f 68f
10:54pm 10 15 mph 1010.3mb 79f 67f
10:48pm 11 14 mph 1010.2mb 79f 67f
10:42pm 10 15 mph 1010mb 79f 67f
10:36pm 16 22 mph 1010.2mb 80f 68f
10:30pm 17 22 mph 1010.4mb 80f 69f
10:24pm 21 26 mph 1010.6mb 80f 70f
10:18pm 23 30 mph 1010.7mb 80f 70f
10:12pm 7 8 mph 1010.3mb 80f 73f
10:06pm 3 6 mph 1009.7mb 80f 73f
10:00pm 5 8 mph 1009.8mb 80f 74f
9:54pm 7 9 mph 1009.6mb 80f 74f
9:48pm 7 9 mph 1009.2mb 80f 74f
9:42pm 7 9 mph 1009mb 80f 74f
9:36pm 8 10 mph 1009.1mb 80f 74f
9:30pm 8 9 mph 1009mb 80f 74f
9:24pm 8 10 mph 1008.6mb 80f 74f
9:18pm 7 8 mph 1007.9mb 80f 74f
9:12pm 7 10 mph 1007.4mb 80f 74f
9:06pm 8 10 mph 1007.1mb 80f 74f
9:00pm 7 9 mph 1007.5mb 80f 74f
8:54pm 8 10 mph 1007.7mb 80f 74f
8:48pm 8 9 mph 1007.6mb 80f 75f
8:42pm 7 7 mph 1007.7mb 80f 75f
8:36pm 6 8 mph 1007.7mb 80f 75f
8:30pm 7 9 mph 1007.5mb 80f 75f
8:24pm 7 7 mph 1007.2mb 80f 75f
8:18pm 7 8 mph 1007.4mb 80f 76f
8:12pm 7 7 mph 1007.1mb 80f 76f
8:06pm 6 7 mph 1007.3mb 80f 76f
8:00pm 6 7 mph 1007.6mb 80f 76f
7:54pm 6 7 mph 1007.5mb 80f 77f
7:48pm 6 7 mph 1007.2mb 80f 77f
7:42pm 7 7 mph 1007.2mb 80f 77f
7:36pm 6 7 mph 1007.3mb 80f 77f
7:30pm 6 6 mph 1007.6mb 80f 77f
7:24pm 6 7 mph 1007.4mb 80f 77f
7:18pm 5 6 mph 1007.5mb 80f 77f
7:12pm 6 6 mph 1007.4mb 80f 78f
7:06pm 6 7 mph 1007.4mb 80f 78f
7:00pm 5 6 mph 1007.2mb 80f 78f
6:54pm 6 8 mph 1007.2mb 80f 78f
6:48pm 5 7 mph 1007.2mb 80f 78f
6:42pm 6 8 mph 1007mb 80f 78f
6:36pm 5 8 mph 1007.2mb 80f 78f
6:30pm 7 9 mph 1007.3mb 80f 78f
6:24pm 10 13 mph 1007.3mb 80f 78f
6:18pm 8 11 mph 1007.4mb 80f 78f
6:12pm 8 13 mph 1007.4mb 80f 77f
6:06pm 11 17 mph 1007.4mb 80f 78f
6:00pm 10 13 mph 1007.6mb 80f 78f
5:54pm 11 15 mph 1007.7mb 80f 78f
5:48pm 10 14 mph 1007.7mb 79f 78f
5:42pm 10 14 mph 1007.8mb 79f 78f
5:36pm 11 13 mph 1007.9mb 79f 78f
5:30pm 9 15 mph 1007.9mb 79f 78f
5:24pm 13 15 mph 1007.8mb 79f 78f
5:18pm 9 15 mph 1007.8mb 79f 78f
5:12pm 11 14 mph 1007.9mb 79f 78f
5:06pm 13 15 mph 1007.9mb 79f 78f
5:00pm 11 17 mph 1008mb 79f 77f
4:54pm 14 16 mph 1008mb 79f 77f
4:48pm 13 14 mph 1008mb 79f 77f
4:42pm 13 17 mph 1008mb 79f 77f
4:36pm 14 17 mph 1008mb 79f 77f
4:30pm 14 16 mph 1008.1mb 79f 77f
4:24pm 5 8 mph 1008.2mb 79f 76f
4:18pm 3 6 mph 1008.2mb 79f 76f
4:12pm 3 6 mph 1008.3mb 79f 76f
4:06pm 6 7 mph 1008.4mb 79f 75f
4:00pm 2 5 mph 1008.5mb 79f 76f
3:54pm 3 5 mph 1008.6mb 79f 76f
3:48pm 3 6 mph 1008.6mb 79f 75f
3:42pm 3 6 mph 1008.7mb 79f 75f
3:36pm 3 7 mph 1008.8mb 79f 75f
3:30pm 7 8 mph 1008.8mb 79f 75f
3:24pm 6 8 mph 1008.7mb 79f 74f
3:18pm 7 8 mph 1008.8mb 79f 74f
3:12pm 7 9 mph 1008.8mb 79f 75f
3:06pm 5 9 mph 1009mb 79f 75f
3:00pm 6 10 mph 1009.1mb 79f 75f
2:54pm 8 10 mph 1009.2mb 79f 75f
2:48pm 7 10 mph 1009.3mb 79f 75f
2:42pm 7 8 mph 1009.4mb 79f 75f
2:36pm 5 10 mph 1009.5mb 79f 75f
2:30pm 8 14 mph 1009.6mb 79f 74f
2:24pm 10 13 mph 1009.8mb 79f 74f
2:18pm 6 8 mph 1009.8mb 79f 74f
2:12pm 10 13 mph 1009.9mb 79f 74f
2:06pm 6 9 mph 1009.9mb 79f 74f
2:00pm 9 15 mph 1010mb 79f 73f
1:54pm 10 15 mph 1010.1mb 79f 73f
1:48pm 7 14 mph 1010.2mb 79f 73f
1:42pm 10 13 mph 1010.4mb 79f 73f
1:36pm 11 14 mph 1010.5mb 79f 73f
1:30pm 10 14 mph 1010.5mb 79f 73f
1:24pm 10 13 mph 1010.5mb 79f 73f
1:18pm 8 10 mph 1010.6mb 79f 73f
1:12pm 8 13 mph 1010.6mb 79f 73f
1:06pm 3 7 mph 1010.6mb 79f 73f
1:00pm 5 7 mph 1010.7mb 79f 73f
12:54pm 8 11 mph 1010.8mb 79f 72f
12:48pm 7 9 mph 1010.8mb 79f 72f
12:42pm 8 10 mph 1010.8mb 79f 72f
12:36pm 8 11 mph 1010.9mb 79f 72f
12:30pm 10 13 mph 1010.9mb 79f 71f
12:24pm 10 13 mph 1010.9mb 79f 71f
12:18pm 8 13 mph 1011mb 79f 72f
12:12pm 9 14 mph 1011mb 79f 71f
12:06pm 11 14 mph 1011mb 79f 70f
12:00pm 11 14 mph 1010.9mb 79f 70f
11:54am 9 13 mph 1010.9mb 79f 71f
11:48am 9 13 mph 1011mb 79f 71f
11:42am 9 15 mph 1011mb 79f 71f
11:36am 10 13 mph 1010.9mb 79f 70f
11:30am 9 13 mph 1010.7mb 79f 70f
11:24am 7 10 mph 1010.6mb 79f 70f
11:18am 9 11 mph 1010.5mb 79f 70f
11:12am 7 13 mph 1010.5mb 79f 70f
11:06am 8 11 mph 1010.4mb 79f 70f
11:00am 9 11 mph 1010.3mb 79f 69f
10:54am 10 15 mph 1010.3mb 79f 70f
10:48am 10 14 mph 1010.3mb 79f 70f
10:42am 10 15 mph 1010.2mb 79f 70f
10:36am 13 17 mph 1010.2mb 79f 69f
10:30am 14 16 mph 1010.1mb 79f 70f
10:24am 14 16 mph 1010.1mb 79f 69f
10:18am 14 16 mph 1010.1mb 79f 69f
10:12am 11 15 mph 1010.1mb 79f 69f
10:06am 14 17 mph 1010mb 79f 69f
10:00am 16 17 mph 1010mb 79f 69f
9:54am 15 16 mph 1010.1mb 79f 69f
9:48am 14 17 mph 1010.1mb 79f 69f
9:42am 14 17 mph 1010.3mb 79f 69f
9:36am 16 20 mph 1010.3mb 79f 69f
9:30am 16 20 mph 1010.3mb 79f 69f
9:24am 14 16 mph 1010.1mb 79f 69f
9:18am 14 17 mph 1010.1mb 79f 69f
9:12am 14 16 mph 1010.2mb 79f 69f
9:06am 14 15 mph 1010.2mb 79f 69f
9:00am 11 13 mph 1010.2mb 79f 69f
8:54am 11 14 mph 1010.2mb 79f 69f
8:48am 13 14 mph 1010.2mb 79f 69f
8:42am 11 14 mph 1010.3mb 79f 69f
8:36am 13 14 mph 1010.1mb 79f 69f
8:30am 11 14 mph 1010.1mb 79f 69f
8:24am 11 15 mph 1010.2mb 79f 69f
8:18am 11 14 mph 1010.1mb 79f 69f
8:12am 11 15 mph 1009.8mb 79f 68f
8:06am 14 16 mph 1009.9mb 79f 68f
8:00am 14 17 mph 1009.9mb 79f 68f
7:54am 11 15 mph 1009.9mb 79f 68f
7:48am 14 18 mph 1010mb 79f 68f
7:42am 15 20 mph 1010mb 79f 68f
7:36am 17 20 mph 1009.8mb 79f 68f
7:30am 17 20 mph 1009.8mb 79f 68f
7:24am 18 20 mph 1010mb 79f 68f
7:18am 18 21 mph 1010mb 79f 68f
7:12am 17 20 mph 1010mb 79f 68f
7:06am 16 20 mph 1010mb 79f 68f
7:00am 17 18 mph 1010.1mb 79f 68f
6:54am 15 17 mph 1010.1mb 79f 68f
6:48am 14 16 mph 1010.3mb 79f 68f
6:42am 14 18 mph 1010.3mb 79f 68f
6:36am 14 17 mph 1010.5mb 79f 68f
6:30am 16 20 mph 1010.6mb 79f 68f
6:24am 13 14 mph 1010.4mb 79f 68f
6:18am 13 14 mph 1010.3mb 79f 68f
6:12am 13 14 mph 1010.1mb 79f 67f
6:06am 13 15 mph 1010.2mb 79f 67f
6:00am 10 14 mph 1010.2mb 79f 67f
5:54am 11 14 mph 1010.4mb 79f 67f
5:48am 10 15 mph 1010.5mb 79f 67f
5:42am 14 15 mph 1010.4mb 79f 68f
5:36am 10 14 mph 1010.1mb 80f 68f
5:30am 13 17 mph 1010mb 80f 67f
5:24am 14 17 mph 1010mb 80f 67f
5:18am 14 17 mph 1010mb 80f 67f
5:12am 14 20 mph 1010.1mb 80f 67f
5:06am 14 17 mph 1010mb 80f 67f
5:00am 15 17 mph 1010mb 80f 67f
4:54am 13 17 mph 1010mb 80f 67f
4:48am 14 17 mph 1009.9mb 80f 67f
4:42am 13 16 mph 1009.9mb 80f 67f
4:36am 13 15 mph 1009.9mb 80f 68f
4:30am 11 15 mph 1009.8mb 80f 68f
4:24am 14 16 mph 1009.8mb 80f 68f
4:18am 14 16 mph 1009.9mb 80f 68f
4:12am 11 15 mph 1009.9mb 80f 68f
4:06am 11 14 mph 1009.9mb 80f 68f
4:00am 13 16 mph 1009.9mb 80f 69f
3:54am 14 15 mph 1010mb 80f 68f
3:48am 11 16 mph 1010.1mb 80f 69f
3:42am 15 16 mph 1010.2mb 80f 69f
3:36am 13 15 mph 1010.2mb 80f 69f
3:30am 14 16 mph 1010.2mb 80f 69f
3:24am 11 15 mph 1010.2mb 80f 69f
3:18am 11 15 mph 1010.1mb 80f 69f
3:12am 11 15 mph 1010.1mb 80f 69f
3:06am 11 16 mph 1010.1mb 80f 69f
3:00am 10 14 mph 1010.1mb 80f 69f
2:54am 10 13 mph 1010.1mb 80f 69f
2:48am 11 14 mph 1010.1mb 80f 69f
2:42am 10 13 mph 1010mb 80f 69f
2:36am 10 14 mph 1010mb 80f 69f
2:30am 11 14 mph 1009.9mb 80f 69f
2:24am 10 14 mph 1009.9mb 80f 69f
2:18am 9 14 mph 1010mb 80f 69f
2:12am 10 13 mph 1010mb 80f 69f
2:06am 8 11 mph 1010mb 80f 70f
2:00am 8 9 mph 1010.1mb 80f 69f
1:54am 6 9 mph 1010.1mb 80f 70f
1:48am 7 9 mph 1010.2mb 80f -
1:42am 6 8 mph 1010.3mb 80f -
1:36am 7 8 mph 1010.5mb 80f -
1:30am 7 8 mph 1010.4mb 80f 70f
1:24am 6 8 mph 1010.4mb 80f 70f
1:18am 6 6 mph 1010.5mb 80f 70f
1:12am 6 6 mph 1010.5mb 80f 70f
1:06am 6 6 mph 1010.5mb 80f 70f
1:00am 5 6 mph 1010.5mb 80f 70f
12:54am 5 6 mph 1010.4mb 80f 70f
12:48am 5 6 mph 1010.4mb 80f 70f
12:42am 3 8 mph 1010.7mb 80f 71f
12:36am 7 8 mph 1010.7mb 80f 71f
12:30am 6 8 mph 1010.7mb 80f 71f
12:24am 7 9 mph 1010.8mb 80f 71f
12:18am 8 9 mph 1010.9mb 80f 71f
12:12am 8 10 mph 1011.1mb 80f 71f
12:06am 9 11 mph 1011.1mb 80f 71f
12:00am 9 11 mph 1011.3mb 80f 71f
Mon 05/22 11:54pm 7 9 mph 1011.3mb 80f 71f
11:48pm 7 9 mph 1011.2mb 80f 71f
11:42pm 7 10 mph 1011.2mb 80f 71f
11:36pm 7 9 mph 1011.3mb 80f 71f
11:30pm 7 9 mph 1011.2mb 80f 70f
11:24pm 8 9 mph 1011.2mb 80f 71f
11:18pm 9 10 mph 1011.3mb 80f 70f
11:12pm 8 10 mph 1011.3mb 80f 70f
11:06pm 8 9 mph 1011.3mb 80f 70f
11:00pm 9 10 mph 1011.3mb 80f 70f
10:54pm 8 10 mph 1011.3mb 80f 70f
10:48pm 8 10 mph 1011.4mb 80f 71f
10:42pm 8 11 mph 1011.4mb 80f 71f
10:36pm 8 10 mph 1011.2mb 80f 71f
10:30pm 10 13 mph 1011.2mb 80f 71f
10:24pm 11 14 mph 1011.2mb 80f 71f
10:18pm 13 14 mph 1011.2mb 80f 71f
10:12pm 13 14 mph 1011.2mb 80f 71f
10:06pm 13 14 mph 1011.1mb 80f 71f
10:00pm 11 13 mph 1011mb 80f 71f
9:54pm 10 13 mph 1011mb 80f 71f
9:48pm 13 14 mph 1010.9mb 80f 71f
9:42pm 10 13 mph 1010.8mb 80f 71f
9:36pm 10 14 mph 1010.9mb 80f 71f
9:30pm 10 11 mph 1010.9mb 80f 71f
9:24pm 9 11 mph 1010.8mb 80f 71f
9:18pm 8 9 mph 1010.8mb 80f 72f
9:12pm 8 10 mph 1010.8mb 80f 71f
9:06pm 9 10 mph 1010.8mb 80f 71f
9:00pm 9 10 mph 1010.8mb 80f 72f
8:54pm 8 11 mph 1010.8mb 80f 72f
8:48pm 8 11 mph 1010.9mb 80f 72f
8:42pm 10 13 mph 1010.8mb 80f 72f
8:36pm 10 11 mph 1010.7mb 80f 72f
8:30pm 9 11 mph 1010.5mb 80f 72f
8:24pm 10 11 mph 1010.5mb 80f 72f
8:18pm 9 10 mph 1010.6mb 80f 72f
8:12pm 10 11 mph 1010.6mb 80f 73f
8:06pm 9 10 mph 1010.6mb 80f 73f
8:00pm 8 10 mph 1010.5mb 80f 73f
7:54pm 10 11 mph 1010.5mb 80f 73f
7:48pm 8 9 mph 1010.3mb 80f 72f
7:42pm 8 9 mph 1010.3mb 80f 72f
7:36pm 7 10 mph 1010.3mb 80f 72f
7:30pm 8 11 mph 1010.2mb 80f 72f
7:24pm 9 10 mph 1010.1mb 80f 72f
7:18pm 9 11 mph 1010mb 80f 72f
7:12pm 9 10 mph 1010.2mb 80f 71f
7:06pm 8 9 mph 1010.3mb 80f 71f
7:00pm 7 9 mph 1010.3mb 80f 72f
6:54pm 6 8 mph 1010.4mb 80f 71f
6:48pm 6 8 mph 1010.4mb 80f 71f
6:42pm 6 9 mph 1010.5mb 80f 71f
6:36pm 6 8 mph 1010.6mb 80f 71f
6:30pm 7 10 mph 1010.7mb 80f 71f
6:24pm 9 13 mph 1011mb 80f 71f
6:18pm 11 15 mph 1011mb 80f 70f
6:12pm 11 15 mph 1011.1mb 80f 70f
6:06pm 14 17 mph 1011.1mb 80f 70f
6:00pm 16 21 mph 1011.3mb 80f 70f
5:54pm 15 22 mph 1011.3mb 80f 71f
5:48pm 18 22 mph 1011.3mb 80f 71f
5:42pm 15 20 mph 1011.3mb 80f 71f
5:36pm 8 11 mph 1011.2mb 80f 76f
5:30pm 8 13 mph 1011.1mb 80f 76f
5:24pm 9 13 mph 1011mb 80f 76f
5:18pm 10 15 mph 1011mb 80f 76f
5:12pm 10 14 mph 1011mb 80f 76f
5:06pm 13 16 mph 1011mb 80f 76f
5:00pm 11 15 mph 1011.1mb 80f 76f
4:54pm 10 13 mph 1011.2mb 80f 76f
4:48pm 2 8 mph 1011.3mb 80f 75f
4:42pm 7 8 mph 1011.4mb 80f 74f
4:36pm 8 13 mph 1011.4mb 80f 74f
4:30pm 9 13 mph 1011.4mb 80f 74f
4:24pm 6 9 mph 1011.4mb 80f 75f
4:18pm 5 7 mph 1011.2mb 80f 75f
4:12pm 6 8 mph 1011.4mb 80f 75f
4:06pm 9 17 mph 1011.6mb 80f 75f
4:00pm 16 21 mph 1011.6mb 80f 74f
3:54pm 16 26 mph 1011.6mb 80f 74f
3:48pm 18 21 mph 1011.5mb 80f 76f
3:42pm 17 18 mph 1011.6mb 80f 76f
3:36pm 16 20 mph 1011.5mb 80f 76f
3:30pm 15 16 mph 1011.6mb 80f 76f
3:24pm 15 16 mph 1011.9mb 80f 76f
3:18pm 14 15 mph 1012.1mb 80f 77f
3:12pm 11 13 mph 1012.3mb 80f 77f
3:06pm 9 10 mph 1012.5mb 80f 77f
3:00pm 8 11 mph 1012.7mb 80f 77f
2:54pm 9 13 mph 1012.8mb 80f 77f
2:48pm 13 15 mph 1012.9mb 80f 77f
2:42pm 11 14 mph 1013.1mb 80f 77f
2:36pm 11 16 mph 1013.2mb 80f 78f
2:30pm 13 17 mph 1013.1mb 80f 78f
2:24pm 15 21 mph 1012.9mb 80f 77f
2:18pm 18 20 mph 1012.8mb 80f 77f
2:12pm 18 22 mph 1012.7mb 80f 78f
2:06pm 22 24 mph 1012.7mb 80f 77f
2:00pm 21 23 mph 1012.9mb 80f 77f
1:54pm 21 25 mph 1013.2mb 80f 77f
1:48pm 21 24 mph 1013.5mb 80f 76f
1:42pm 22 26 mph 1013.7mb 80f 77f
1:36pm 22 25 mph 1013.8mb 80f 77f
1:30pm 22 29 mph 1013.8mb 80f 76f
1:24pm 23 29 mph 1013.7mb 80f 76f
1:18pm 23 25 mph 1013.9mb 80f 76f
1:12pm 23 26 mph 1014.1mb 80f 76f
1:06pm 23 28 mph 1014.1mb 80f 77f
1:00pm 24 26 mph 1014mb 80f 76f
12:54pm 25 28 mph 1014mb 80f 77f
12:48pm 25 28 mph 1014mb 80f 77f
12:42pm 23 28 mph 1014.1mb 80f 77f
12:36pm 24 26 mph 1014.2mb 80f 76f
12:30pm 24 26 mph 1014.4mb 80f 76f
12:24pm 22 24 mph 1014.5mb 80f 76f
12:18pm 23 25 mph 1014.6mb 80f 76f
12:12pm 22 26 mph 1014.6mb 80f 76f
12:06pm 22 28 mph 1014.7mb 80f 76f
12:00pm 21 25 mph 1014.9mb 80f 76f
11:54am 22 24 mph 1015mb 80f 76f
11:48am 21 24 mph 1015mb 80f 76f
11:42am 21 23 mph 1015mb 80f 76f
11:36am 20 24 mph 1015.1mb 80f 76f
11:30am 21 23 mph 1015.2mb 80f 76f
11:24am 21 24 mph 1015.3mb 80f 76f
11:18am 20 24 mph 1015.5mb 80f 76f
11:12am 21 24 mph 1015.5mb 80f 76f
11:06am 23 25 mph 1015.7mb 80f 76f
11:00am 22 25 mph 1015.7mb 80f 76f
10:54am 23 26 mph 1015.7mb 80f 76f
10:48am 22 26 mph 1015.6mb 80f 76f
10:42am 23 26 mph 1015.6mb 80f 76f
10:36am 22 28 mph 1015.6mb 80f 76f
10:30am 24 28 mph 1015.5mb 80f 76f
10:24am 21 23 mph 1015.3mb 80f 76f
10:18am 17 22 mph 1015.4mb 80f 77f
10:12am 20 23 mph 1015.2mb 80f 77f
10:06am 20 22 mph 1015.2mb 80f 77f
10:00am 18 22 mph 1015.4mb 80f 77f
9:54am 16 18 mph 1015.6mb 80f 77f
9:48am 14 16 mph 1015.8mb 80f 75f
9:42am 14 15 mph 1015.9mb 80f 75f
9:36am 14 16 mph 1015.8mb 80f 74f
9:30am 14 16 mph 1015.7mb 80f 75f
9:24am 14 15 mph 1015.8mb 80f 75f
9:18am 15 21 mph 1015.9mb 80f 76f
9:12am 15 17 mph 1016mb 80f 76f
9:06am 16 17 mph 1016mb 80f 76f
9:00am 15 20 mph 1016mb 80f 76f
8:54am 17 18 mph 1015.9mb 80f 76f
8:48am 17 20 mph 1015.7mb 80f 75f
8:30am 15 18 mph 1015.5mb 80f 75f
8:24am 13 14 mph 1015.6mb 80f 75f
8:18am 10 17 mph 1015.6mb 80f 74f
8:12am 16 18 mph 1016mb 80f 75f
8:06am 15 17 mph 1016.1mb 80f 74f
8:00am 10 16 mph 1016.2mb 80f 74f
7:54am 9 11 mph 1016.2mb 80f 73f
7:48am 9 15 mph 1015.9mb 80f 72f
7:42am 17 23 mph 1015.9mb 80f 71f
7:36am 22 25 mph 1015.5mb 80f 73f
7:30am 22 26 mph 1015.3mb 80f 76f
7:24am 22 25 mph 1015.1mb 80f 77f
7:18am 23 26 mph 1015mb 80f 77f
7:12am 23 26 mph 1014.9mb 80f 77f
7:06am 23 26 mph 1014.9mb 80f 76f
7:00am 24 26 mph 1014.8mb 80f 76f
6:54am 24 26 mph 1014.7mb 80f 76f
6:48am 24 29 mph 1014.8mb 80f 76f
6:42am 25 29 mph 1014.8mb 80f 76f
6:36am 25 29 mph 1014.8mb 80f 76f
6:30am 29 31 mph 1014.5mb 80f 76f
6:24am 28 31 mph 1014.4mb 80f 76f
6:18am 28 31 mph 1014.6mb 80f 76f
6:12am 25 32 mph 1014.7mb 80f 76f
6:06am 30 32 mph 1014.8mb 80f 76f
6:00am 29 32 mph 1014.8mb 80f 75f
5:54am 25 31 mph 1014.8mb 80f 76f
5:48am 29 32 mph 1014.5mb 80f 75f
5:42am 25 29 mph 1014.9mb 80f 75f
5:36am 26 33 mph 1014.9mb 80f 76f
5:30am 29 34 mph 1014.8mb 80f 75f
5:24am 32 37 mph 1014.8mb 80f 75f
5:18am 31 34 mph 1014.9mb 80f 75f
5:12am 30 34 mph 1015mb 80f 75f
5:06am 30 34 mph 1015.1mb 80f 75f
5:00am 30 36 mph 1015.2mb 80f 75f
4:54am 32 38 mph 1015.2mb 80f 75f
4:48am 29 38 mph 1015.1mb 80f 76f
4:42am 32 37 mph 1015.2mb 80f 76f
4:36am 32 36 mph 1014.9mb 80f 75f
4:30am 31 38 mph 1014.9mb 80f 75f
4:24am 32 37 mph 1014.8mb 80f 75f
4:18am 33 38 mph 1014.8mb 80f 75f
4:12am 32 36 mph 1015mb 80f 76f
4:06am 33 37 mph 1015mb 80f 75f
4:00am 29 36 mph 1015.1mb 80f 75f
3:54am 28 36 mph 1015.3mb 80f 75f
3:48am 30 33 mph 1015.2mb 80f 75f
3:42am 32 38 mph 1015.1mb 80f 75f
3:36am 33 39 mph 1015.1mb 80f 75f
3:30am 32 40 mph 1015.2mb 80f 75f
3:24am 32 40 mph 1015.4mb 80f 75f
3:18am 36 43 mph 1015.2mb 80f 75f
3:12am 34 39 mph 1015.4mb 80f 75f
3:06am 36 43 mph 1015.7mb 80f 75f
3:00am 36 43 mph 1015.9mb 80f 74f
2:54am 36 46 mph 1016.2mb 80f 75f
2:48am 34 44 mph 1016.3mb 80f 75f
2:42am 34 44 mph 1016.4mb 80f 75f
2:36am 36 40 mph 1016.7mb 80f 75f
2:30am 38 41 mph 1016.7mb 80f 74f
2:24am 34 43 mph 1016.7mb 80f 74f
2:18am 37 45 mph 1016.5mb 80f 74f
2:12am 38 40 mph 1016.6mb 80f 74f
2:06am 28 31 mph 1016.8mb 80f 75f
2:00am 32 37 mph 1017.3mb 80f 74f
1:54am 26 30 mph 1017.8mb 80f 75f
1:48am 28 32 mph 1017.8mb 80f 75f
1:42am 29 33 mph 1017.7mb 80f 75f
1:36am 32 36 mph 1017.6mb 80f 75f
1:30am 29 34 mph 1017.2mb 80f 75f
1:24am 31 37 mph 1016.6mb 80f 75f
1:18am 30 32 mph 1016.7mb 80f 76f
1:12am 25 29 mph 1017mb 80f 76f
1:06am 23 26 mph 1017.1mb 80f 76f
1:00am 24 28 mph 1017.2mb 80f 76f
12:54am 23 26 mph 1017.4mb 80f 76f
12:48am 22 26 mph 1017.5mb 80f 75f
12:42am 22 26 mph 1017.4mb 80f 75f
12:36am 22 25 mph 1017.5mb 80f 75f
12:30am 23 28 mph 1017.6mb 80f 75f
12:24am 22 25 mph 1017.4mb 80f 75f
12:18am 20 24 mph 1017.3mb 80f 75f
12:12am 16 21 mph 1017.5mb 80f 75f
12:06am 18 22 mph 1017.4mb 81f 74f
12:00am 16 20 mph 1017.4mb 81f 74f
Sun 05/21 11:54pm 11 14 mph 1017.5mb 81f 73f
11:48pm 11 14 mph 1017.4mb 81f 73f
11:42pm 9 14 mph 1017.7mb 81f 73f
11:36pm 11 15 mph 1017.8mb 81f 73f
11:30pm 13 15 mph 1017.7mb 81f 73f
11:24pm 13 15 mph 1017.5mb 81f 74f
11:18pm 9 10 mph 1017.6mb 81f 73f
11:12pm 9 11 mph 1017.6mb 81f 73f
11:06pm 10 13 mph 1017.3mb 81f 73f
11:00pm 9 11 mph 1017.6mb 81f 73f
10:54pm 7 8 mph 1017.8mb 81f 73f
10:48pm 6 7 mph 1017.9mb 81f 73f
10:42pm 6 8 mph 1018mb 81f 73f
10:36pm 7 9 mph 1017.9mb 81f 73f
10:30pm 8 10 mph 1017.9mb 81f 73f
10:24pm 9 11 mph 1018.1mb 81f 73f
10:18pm 9 11 mph 1018mb 81f 72f
10:12pm 9 11 mph 1017.8mb 81f 72f
10:06pm 9 13 mph 1017.8mb 81f 72f
10:00pm 11 15 mph 1017.8mb 81f 72f
9:54pm 13 15 mph 1017.9mb 81f 73f
9:48pm 14 16 mph 1017.9mb 81f 73f
9:42pm 13 16 mph 1017.9mb 81f 72f
9:36pm 14 16 mph 1017.9mb 81f 72f
9:30pm 13 16 mph 1017.7mb 81f 72f
9:24pm 14 16 mph 1017.4mb 81f 72f
9:18pm 10 14 mph 1017.5mb 81f 72f
9:12pm 10 13 mph 1017.4mb 81f 72f
9:06pm 9 14 mph 1017.2mb 82f 72f
9:00pm 11 14 mph 1017.2mb 82f 72f
8:54pm 11 14 mph 1017.2mb 82f 72f
8:48pm 10 16 mph 1017.1mb 82f 72f
8:42pm 11 16 mph 1017mb 82f 73f
8:36pm 15 17 mph 1016.8mb 82f 73f
8:30pm 14 21 mph 1016.7mb 82f 73f
8:24pm 16 22 mph 1016.7mb 82f 73f
8:18pm 22 25 mph 1016.6mb 82f 74f
8:12pm 23 26 mph 1016.5mb 82f 73f
8:06pm 21 26 mph 1016.4mb 82f 74f
8:00pm 22 26 mph 1016.2mb 82f 74f
7:54pm 18 22 mph 1016.1mb 82f 74f
7:48pm 18 22 mph 1016mb 82f 74f
7:42pm 17 21 mph 1015.6mb 82f 76f
7:36pm 17 21 mph 1015.2mb 82f 76f
7:30pm 15 16 mph 1015.3mb 82f 77f
7:24pm 14 15 mph 1015.4mb 82f 77f
7:18pm 14 16 mph 1015.3mb 82f 76f
7:12pm 14 15 mph 1015.1mb 82f 76f
7:06pm 14 17 mph 1015mb 82f 76f
7:00pm 15 17 mph 1015mb 82f 76f
6:54pm 14 17 mph 1015.3mb 82f 76f
6:48pm 16 18 mph 1015.3mb 82f 76f
6:42pm 15 20 mph 1015.5mb 82f 76f
6:36pm 17 21 mph 1015.5mb 82f 75f
6:30pm 21 23 mph 1015.4mb 82f 75f
6:24pm 20 22 mph 1015.5mb 82f 74f
6:18pm 20 23 mph 1015.7mb 82f 74f
6:12pm 20 22 mph 1016mb 82f 74f
6:06pm 20 22 mph 1016.3mb 82f 74f
6:00pm 18 22 mph 1016.3mb 82f 74f
5:54pm 17 21 mph 1016.4mb 82f 74f
5:48pm 20 22 mph 1016.6mb 82f 73f
5:42pm 18 22 mph 1016.7mb 82f 74f
5:36pm 15 18 mph 1016.7mb 82f 74f
5:30pm 15 20 mph 1016.8mb 82f 74f
5:24pm 17 21 mph 1016.6mb 82f 74f
5:18pm 20 23 mph 1016.5mb 82f 74f
5:12pm 16 21 mph 1016.6mb 82f 73f
5:06pm 17 20 mph 1016.7mb 82f 73f
5:00pm 15 17 mph 1016.6mb 82f 73f
4:54pm 17 20 mph 1016.6mb 82f 73f
4:48pm 15 21 mph 1016.5mb 82f 72f
4:42pm 17 20 mph 1016.8mb 82f 72f
4:36pm 14 20 mph 1017mb 82f 72f
4:30pm 20 23 mph 1016.8mb 82f 72f
4:24pm 18 23 mph 1016.8mb 82f 73f
4:18pm 21 24 mph 1016.4mb 82f 73f
4:12pm 10 11 mph 1016.1mb 82f 77f
4:06pm 10 14 mph 1015.9mb 82f 78f
4:00pm 13 14 mph 1016mb 82f 78f
3:54pm 7 8 mph 1015.9mb 82f 79f
3:48pm 8 11 mph 1015.9mb 82f 80f
3:42pm 9 10 mph 1015.9mb 82f 79f
3:36pm 8 9 mph 1015.9mb 82f 79f
3:30pm 2 3 mph 1016mb 82f 80f
3:24pm 3 3 mph 1016mb 82f 80f
3:18pm  -  1 mph 1016mb 82f 80f
3:12pm 2 5 mph 1016.3mb 82f 80f
3:06pm 5 6 mph 1016.4mb 82f 79f
3:00pm 5 6 mph 1016.3mb 82f 79f
2:54pm 7 9 mph 1016mb 82f 79f
2:48pm 6 8 mph 1015.6mb 82f 78f
2:42pm 7 11 mph 1015.4mb 82f 79f
2:36pm 10 11 mph 1015.1mb 82f 79f
2:30pm 11 11 mph 1015.1mb 82f 79f
2:24pm 8 9 mph 1015.2mb 82f 79f
2:18pm 7 8 mph 1015.6mb 82f 79f
2:12pm 8 8 mph 1015.7mb 82f 79f
2:06pm 5 6 mph 1015.9mb 82f 79f
2:00pm 6 9 mph 1016.1mb 82f 79f
1:54pm 8 10 mph 1015.9mb 82f 79f
1:48pm 9 9 mph 1015.9mb 82f 79f
1:42pm 6 7 mph 1016.2mb 82f 79f
1:36pm 8 9 mph 1016.2mb 82f 79f
1:30pm 8 9 mph 1016mb 82f 79f
1:24pm 8 9 mph 1016.3mb 82f 79f
1:18pm 8 9 mph 1016.5mb 82f 79f
1:12pm 7 8 mph 1016.7mb 82f 79f
1:06pm 6 7 mph 1017mb 82f 79f
1:00pm 6 10 mph 1016.7mb 82f 79f
12:54pm 9 10 mph 1016.6mb 82f 79f
12:48pm 8 11 mph 1016.9mb 82f 79f
12:42pm 9 13 mph 1016.6mb 82f 79f
12:36pm 11 14 mph 1016.7mb 82f 79f
12:30pm 13 15 mph 1017mb 82f 79f
12:24pm 14 15 mph 1016.9mb 82f 79f
12:18pm 13 14 mph 1016.8mb 82f 79f
12:12pm 11 14 mph 1017mb 82f 79f
12:06pm 11 13 mph 1017.2mb 82f 79f
12:00pm 10 14 mph 1017.4mb 82f 80f
11:54am 11 13 mph 1017.4mb 82f 79f
11:48am 9 14 mph 1017.7mb 82f 80f
11:42am 13 15 mph 1017.3mb 82f 79f
11:36am 14 15 mph 1017.4mb 82f 80f
11:30am 11 14 mph 1017.5mb 82f 80f
11:24am 13 14 mph 1017.4mb 82f 79f
11:18am 11 14 mph 1017.7mb 82f 80f
11:12am 10 13 mph 1017.5mb 82f 79f
11:06am 13 14 mph 1017.4mb 82f 79f
11:00am 10 13 mph 1017.6mb 82f 80f
10:54am 10 11 mph 1017.7mb 82f 79f
10:48am 10 14 mph 1017.5mb 82f 80f
10:42am 11 13 mph 1017.1mb 82f 79f
10:36am 11 14 mph 1017.3mb 82f 79f
10:30am 13 14 mph 1017.1mb 82f 79f
10:24am 10 11 mph 1017.1mb 82f 80f
10:18am 10 11 mph 1017.2mb 82f 79f
10:12am 10 13 mph 1017.1mb 82f 79f
10:06am 10 11 mph 1017.1mb 82f 79f
10:00am 10 11 mph 1017.1mb 82f 79f
9:54am 11 13 mph 1017mb 82f 80f
9:48am 13 14 mph 1016.8mb 82f 79f
9:42am 9 11 mph 1017mb 82f 80f
9:36am 10 13 mph 1016.9mb 82f 80f
9:30am 11 13 mph 1016.6mb 82f 80f
9:24am 9 10 mph 1017mb 81f 80f
9:18am 8 10 mph 1017mb 82f 80f
9:12am 10 11 mph 1017.1mb 82f 79f
9:06am 10 11 mph 1017.1mb 82f 79f
9:00am 9 11 mph 1017.2mb 82f 79f
8:54am 8 10 mph 1017.2mb 82f 80f
8:48am 8 9 mph 1017.2mb 82f 79f
8:42am 8 9 mph 1017.3mb 82f 80f
8:36am 8 9 mph 1017.2mb 82f 80f
8:30am 7 9 mph 1017.2mb 82f 80f
8:24am 6 9 mph 1017mb 82f 80f
8:18am 8 10 mph 1017mb 82f 80f
8:12am 8 9 mph 1016.9mb 82f 79f
8:06am 9 10 mph 1016.8mb 82f 79f
8:00am 9 10 mph 1016.8mb 82f 79f
7:54am 8 9 mph 1016.8mb 82f 79f
7:48am 8 9 mph 1016.7mb 82f 79f
7:42am 9 10 mph 1016.6mb 82f 79f
7:36am 8 9 mph 1016.5mb 82f 79f
7:30am 7 9 mph 1016.5mb 82f 79f
7:24am 7 8 mph 1016.4mb 82f 78f
7:18am 6 7 mph 1016.2mb 82f 79f
7:12am 6 8 mph 1016.1mb 82f 79f
7:06am 7 7 mph 1016mb 82f 79f
7:00am 7 8 mph 1016mb 82f 78f
6:54am 7 10 mph 1015.9mb 82f 79f
6:48am 8 9 mph 1015.8mb 82f 79f
6:42am 7 8 mph 1015.7mb 82f 78f
6:36am 8 9 mph 1015.7mb 82f 78f
6:30am 7 8 mph 1015.6mb 82f 79f
6:24am 7 9 mph 1015.6mb 82f 79f
6:18am 8 9 mph 1015.5mb 82f 79f
6:12am 7 8 mph 1015.4mb 82f 79f
6:06am 7 8 mph 1015.3mb 82f 78f
6:00am 6 7 mph 1015.4mb 82f 78f
5:54am 7 8 mph 1015.3mb 82f 79f
5:48am 8 9 mph 1015.4mb 82f 79f
5:42am 8 9 mph 1015.2mb 82f 79f
5:36am 8 8 mph 1015.3mb 82f 78f
5:30am 6 8 mph 1015.3mb 82f 79f